sensor_id;sensor_type;location;lat;lon;timestamp;P1;durP1;ratioP1;P2;durP2;ratioP2
16660;SDS011;8444;52.012;5.048;2023-11-21T00:01:34;18.47;;;9.63;;
16660;SDS011;8444;52.012;5.048;2023-11-21T00:03:59;19.37;;;9.37;;
16660;SDS011;8444;52.012;5.048;2023-11-21T00:06:26;17.77;;;9.53;;
16660;SDS011;8444;52.012;5.048;2023-11-21T00:08:51;17.53;;;8.90;;
16660;SDS011;8444;52.012;5.048;2023-11-21T00:11:17;21.47;;;9.03;;
16660;SDS011;8444;52.012;5.048;2023-11-21T00:13:42;24.67;;;10.03;;
16660;SDS011;8444;52.012;5.048;2023-11-21T00:16:07;26.27;;;9.33;;
16660;SDS011;8444;52.012;5.048;2023-11-21T00:18:32;18.73;;;7.93;;
16660;SDS011;8444;52.012;5.048;2023-11-21T00:20:57;17.47;;;8.83;;
16660;SDS011;8444;52.012;5.048;2023-11-21T00:23:24;17.67;;;7.70;;
16660;SDS011;8444;52.012;5.048;2023-11-21T00:25:49;10.83;;;6.70;;
16660;SDS011;8444;52.012;5.048;2023-11-21T00:28:14;19.10;;;8.30;;
16660;SDS011;8444;52.012;5.048;2023-11-21T00:30:40;11.07;;;7.03;;
16660;SDS011;8444;52.012;5.048;2023-11-21T00:33:05;37.73;;;8.87;;
16660;SDS011;8444;52.012;5.048;2023-11-21T00:35:30;11.37;;;7.53;;
16660;SDS011;8444;52.012;5.048;2023-11-21T00:37:55;15.47;;;7.33;;
16660;SDS011;8444;52.012;5.048;2023-11-21T00:40:21;9.33;;;5.83;;
16660;SDS011;8444;52.012;5.048;2023-11-21T00:42:47;18.57;;;8.03;;
16660;SDS011;8444;52.012;5.048;2023-11-21T00:45:12;11.27;;;6.90;;
16660;SDS011;8444;52.012;5.048;2023-11-21T00:47:37;8.23;;;6.20;;
16660;SDS011;8444;52.012;5.048;2023-11-21T00:50:03;9.87;;;6.97;;
16660;SDS011;8444;52.012;5.048;2023-11-21T00:52:31;9.90;;;6.93;;
16660;SDS011;8444;52.012;5.048;2023-11-21T00:54:56;10.80;;;6.40;;
16660;SDS011;8444;52.012;5.048;2023-11-21T00:57:21;7.00;;;5.47;;
16660;SDS011;8444;52.012;5.048;2023-11-21T00:59:46;9.13;;;6.37;;
16660;SDS011;8444;52.012;5.048;2023-11-21T01:02:11;14.70;;;6.50;;
16660;SDS011;8444;52.012;5.048;2023-11-21T01:04:37;12.03;;;6.97;;
16660;SDS011;8444;52.012;5.048;2023-11-21T01:07:02;7.93;;;5.37;;
16660;SDS011;8444;52.012;5.048;2023-11-21T01:09:28;7.50;;;5.57;;
16660;SDS011;8444;52.012;5.048;2023-11-21T01:11:55;9.57;;;5.37;;
16660;SDS011;8444;52.012;5.048;2023-11-21T01:14:20;6.70;;;4.87;;
16660;SDS011;8444;52.012;5.048;2023-11-21T01:16:45;6.33;;;4.70;;
16660;SDS011;8444;52.012;5.048;2023-11-21T01:19:10;5.60;;;4.50;;
16660;SDS011;8444;52.012;5.048;2023-11-21T01:21:36;9.27;;;5.27;;
16660;SDS011;8444;52.012;5.048;2023-11-21T01:24:01;9.23;;;5.63;;
16660;SDS011;8444;52.012;5.048;2023-11-21T01:26:27;8.17;;;4.87;;
16660;SDS011;8444;52.012;5.048;2023-11-21T01:28:52;9.50;;;5.67;;
16660;SDS011;8444;52.012;5.048;2023-11-21T01:31:18;6.40;;;4.73;;
16660;SDS011;8444;52.012;5.048;2023-11-21T01:33:44;7.03;;;5.20;;
16660;SDS011;8444;52.012;5.048;2023-11-21T01:36:09;7.27;;;5.33;;
16660;SDS011;8444;52.012;5.048;2023-11-21T01:38:35;10.53;;;5.63;;
16660;SDS011;8444;52.012;5.048;2023-11-21T01:41:00;11.53;;;6.03;;
16660;SDS011;8444;52.012;5.048;2023-11-21T01:43:26;7.83;;;5.90;;
16660;SDS011;8444;52.012;5.048;2023-11-21T01:45:51;13.17;;;6.47;;
16660;SDS011;8444;52.012;5.048;2023-11-21T01:48:16;8.17;;;6.10;;
16660;SDS011;8444;52.012;5.048;2023-11-21T01:50:42;8.30;;;5.97;;
16660;SDS011;8444;52.012;5.048;2023-11-21T01:53:07;8.43;;;6.03;;
16660;SDS011;8444;52.012;5.048;2023-11-21T01:55:32;12.33;;;7.17;;
16660;SDS011;8444;52.012;5.048;2023-11-21T01:57:59;8.20;;;6.13;;
16660;SDS011;8444;52.012;5.048;2023-11-21T02:00:25;10.03;;;7.03;;
16660;SDS011;8444;52.012;5.048;2023-11-21T02:02:53;12.57;;;8.17;;
16660;SDS011;8444;52.012;5.048;2023-11-21T02:05:18;13.23;;;7.40;;
16660;SDS011;8444;52.012;5.048;2023-11-21T02:07:44;10.87;;;6.23;;
16660;SDS011;8444;52.012;5.048;2023-11-21T02:10:10;15.43;;;8.30;;
16660;SDS011;8444;52.012;5.048;2023-11-21T02:12:35;15.63;;;9.00;;
16660;SDS011;8444;52.012;5.048;2023-11-21T02:15:03;15.37;;;9.03;;
16660;SDS011;8444;52.012;5.048;2023-11-21T02:17:34;20.20;;;10.07;;
16660;SDS011;8444;52.012;5.048;2023-11-21T02:19:59;16.70;;;9.97;;
16660;SDS011;8444;52.012;5.048;2023-11-21T02:22:25;16.80;;;10.30;;
16660;SDS011;8444;52.012;5.048;2023-11-21T02:24:51;20.60;;;11.67;;
16660;SDS011;8444;52.012;5.048;2023-11-21T02:27:17;20.70;;;11.07;;
16660;SDS011;8444;52.012;5.048;2023-11-21T02:29:46;22.93;;;11.63;;
16660;SDS011;8444;52.012;5.048;2023-11-21T02:32:12;17.97;;;9.97;;
16660;SDS011;8444;52.012;5.048;2023-11-21T02:34:37;18.93;;;11.13;;
16660;SDS011;8444;52.012;5.048;2023-11-21T02:37:04;18.23;;;11.27;;
16660;SDS011;8444;52.012;5.048;2023-11-21T02:39:30;19.27;;;10.27;;
16660;SDS011;8444;52.012;5.048;2023-11-21T02:41:56;18.33;;;9.13;;
16660;SDS011;8444;52.012;5.048;2023-11-21T02:44:22;16.20;;;10.47;;
16660;SDS011;8444;52.012;5.048;2023-11-21T02:46:47;15.53;;;8.93;;
16660;SDS011;8444;52.012;5.048;2023-11-21T02:49:12;16.27;;;9.00;;
16660;SDS011;8444;52.012;5.048;2023-11-21T02:51:37;15.47;;;9.27;;
16660;SDS011;8444;52.012;5.048;2023-11-21T02:54:03;13.53;;;8.47;;
16660;SDS011;8444;52.012;5.048;2023-11-21T02:56:31;11.93;;;8.20;;
16660;SDS011;8444;52.012;5.048;2023-11-21T02:58:57;16.23;;;9.23;;
16660;SDS011;8444;52.012;5.048;2023-11-21T03:01:22;12.73;;;8.13;;
16660;SDS011;8444;52.012;5.048;2023-11-21T03:03:49;15.63;;;9.30;;
16660;SDS011;8444;52.012;5.048;2023-11-21T03:06:16;14.07;;;8.83;;
16660;SDS011;8444;52.012;5.048;2023-11-21T03:08:41;13.97;;;8.03;;
16660;SDS011;8444;52.012;5.048;2023-11-21T03:11:07;16.83;;;8.40;;
16660;SDS011;8444;52.012;5.048;2023-11-21T03:13:33;10.77;;;7.43;;
16660;SDS011;8444;52.012;5.048;2023-11-21T03:15:58;13.30;;;7.93;;
16660;SDS011;8444;52.012;5.048;2023-11-21T03:18:23;11.40;;;6.87;;
16660;SDS011;8444;52.012;5.048;2023-11-21T03:20:48;12.47;;;8.20;;
16660;SDS011;8444;52.012;5.048;2023-11-21T03:23:13;12.90;;;7.70;;
16660;SDS011;8444;52.012;5.048;2023-11-21T03:25:40;13.70;;;7.33;;
16660;SDS011;8444;52.012;5.048;2023-11-21T03:28:05;18.30;;;8.33;;
16660;SDS011;8444;52.012;5.048;2023-11-21T03:30:30;16.80;;;8.27;;
16660;SDS011;8444;52.012;5.048;2023-11-21T03:32:56;13.87;;;9.17;;
16660;SDS011;8444;52.012;5.048;2023-11-21T03:35:21;13.37;;;7.43;;
16660;SDS011;8444;52.012;5.048;2023-11-21T03:37:47;15.37;;;8.10;;
16660;SDS011;8444;52.012;5.048;2023-11-21T03:40:12;14.43;;;7.83;;
16660;SDS011;8444;52.012;5.048;2023-11-21T03:42:37;13.20;;;7.60;;
16660;SDS011;8444;52.012;5.048;2023-11-21T03:45:03;15.13;;;7.87;;
16660;SDS011;8444;52.012;5.048;2023-11-21T03:47:28;13.93;;;7.10;;
16660;SDS011;8444;52.012;5.048;2023-11-21T03:49:53;14.87;;;7.97;;
16660;SDS011;8444;52.012;5.048;2023-11-21T03:52:18;20.47;;;8.23;;
16660;SDS011;8444;52.012;5.048;2023-11-21T03:54:44;16.17;;;8.03;;
16660;SDS011;8444;52.012;5.048;2023-11-21T03:57:09;17.60;;;8.43;;
16660;SDS011;8444;52.012;5.048;2023-11-21T03:59:34;18.93;;;7.70;;
16660;SDS011;8444;52.012;5.048;2023-11-21T04:02:00;14.07;;;8.10;;
16660;SDS011;8444;52.012;5.048;2023-11-21T04:04:25;14.80;;;7.90;;
16660;SDS011;8444;52.012;5.048;2023-11-21T04:06:50;18.93;;;8.83;;
16660;SDS011;8444;52.012;5.048;2023-11-21T04:09:16;24.97;;;10.80;;
16660;SDS011;8444;52.012;5.048;2023-11-21T04:11:42;13.97;;;8.23;;
16660;SDS011;8444;52.012;5.048;2023-11-21T04:14:07;22.97;;;9.33;;
16660;SDS011;8444;52.012;5.048;2023-11-21T04:16:33;17.80;;;7.70;;
16660;SDS011;8444;52.012;5.048;2023-11-21T04:18:58;13.17;;;7.83;;
16660;SDS011;8444;52.012;5.048;2023-11-21T04:21:23;18.57;;;8.70;;
16660;SDS011;8444;52.012;5.048;2023-11-21T04:23:49;23.07;;;9.53;;
16660;SDS011;8444;52.012;5.048;2023-11-21T04:26:14;21.07;;;10.00;;
16660;SDS011;8444;52.012;5.048;2023-11-21T04:28:39;18.97;;;8.63;;
16660;SDS011;8444;52.012;5.048;2023-11-21T04:31:04;19.27;;;9.27;;
16660;SDS011;8444;52.012;5.048;2023-11-21T04:33:30;17.67;;;9.43;;
16660;SDS011;8444;52.012;5.048;2023-11-21T04:35:56;20.93;;;8.77;;
16660;SDS011;8444;52.012;5.048;2023-11-21T04:38:21;18.10;;;8.20;;
16660;SDS011;8444;52.012;5.048;2023-11-21T04:40:46;18.27;;;9.43;;
16660;SDS011;8444;52.012;5.048;2023-11-21T04:43:12;14.07;;;7.67;;
16660;SDS011;8444;52.012;5.048;2023-11-21T04:45:37;18.23;;;8.90;;
16660;SDS011;8444;52.012;5.048;2023-11-21T04:48:02;20.87;;;8.13;;
16660;SDS011;8444;52.012;5.048;2023-11-21T04:50:28;21.50;;;8.13;;
16660;SDS011;8444;52.012;5.048;2023-11-21T04:52:54;18.93;;;9.13;;
16660;SDS011;8444;52.012;5.048;2023-11-21T04:55:19;17.87;;;8.83;;
16660;SDS011;8444;52.012;5.048;2023-11-21T04:57:44;19.97;;;9.00;;
16660;SDS011;8444;52.012;5.048;2023-11-21T05:00:10;16.03;;;7.67;;
16660;SDS011;8444;52.012;5.048;2023-11-21T05:02:35;14.70;;;8.23;;
16660;SDS011;8444;52.012;5.048;2023-11-21T05:05:01;19.60;;;9.03;;
16660;SDS011;8444;52.012;5.048;2023-11-21T05:07:27;21.00;;;8.80;;
16660;SDS011;8444;52.012;5.048;2023-11-21T05:09:54;15.97;;;9.57;;
16660;SDS011;8444;52.012;5.048;2023-11-21T05:12:19;16.20;;;8.80;;
16660;SDS011;8444;52.012;5.048;2023-11-21T05:14:44;17.40;;;9.13;;
16660;SDS011;8444;52.012;5.048;2023-11-21T05:17:09;15.90;;;8.63;;
16660;SDS011;8444;52.012;5.048;2023-11-21T05:19:34;23.17;;;8.60;;
16660;SDS011;8444;52.012;5.048;2023-11-21T05:22:00;17.23;;;9.33;;
16660;SDS011;8444;52.012;5.048;2023-11-21T05:24:26;19.97;;;9.10;;
16660;SDS011;8444;52.012;5.048;2023-11-21T05:26:51;17.63;;;9.03;;
16660;SDS011;8444;52.012;5.048;2023-11-21T05:29:16;16.60;;;8.40;;
16660;SDS011;8444;52.012;5.048;2023-11-21T05:31:41;14.67;;;8.37;;
16660;SDS011;8444;52.012;5.048;2023-11-21T05:34:06;21.53;;;9.53;;
16660;SDS011;8444;52.012;5.048;2023-11-21T05:36:32;19.93;;;8.93;;
16660;SDS011;8444;52.012;5.048;2023-11-21T05:38:57;16.83;;;8.97;;
16660;SDS011;8444;52.012;5.048;2023-11-21T05:41:22;16.73;;;8.83;;
16660;SDS011;8444;52.012;5.048;2023-11-21T05:43:48;18.00;;;8.70;;
16660;SDS011;8444;52.012;5.048;2023-11-21T05:46:13;14.73;;;8.60;;
16660;SDS011;8444;52.012;5.048;2023-11-21T05:48:38;21.23;;;9.07;;
16660;SDS011;8444;52.012;5.048;2023-11-21T05:51:06;21.33;;;8.30;;
16660;SDS011;8444;52.012;5.048;2023-11-21T05:53:33;21.93;;;9.60;;
16660;SDS011;8444;52.012;5.048;2023-11-21T05:55:58;21.43;;;9.30;;
16660;SDS011;8444;52.012;5.048;2023-11-21T05:58:23;17.03;;;9.23;;
16660;SDS011;8444;52.012;5.048;2023-11-21T06:00:49;25.90;;;9.03;;
16660;SDS011;8444;52.012;5.048;2023-11-21T06:03:14;18.97;;;9.90;;
16660;SDS011;8444;52.012;5.048;2023-11-21T06:05:39;18.00;;;9.47;;
16660;SDS011;8444;52.012;5.048;2023-11-21T06:08:04;16.70;;;8.80;;
16660;SDS011;8444;52.012;5.048;2023-11-21T06:10:31;18.40;;;8.53;;
16660;SDS011;8444;52.012;5.048;2023-11-21T06:12:56;22.70;;;9.80;;
16660;SDS011;8444;52.012;5.048;2023-11-21T06:15:22;20.13;;;9.13;;
16660;SDS011;8444;52.012;5.048;2023-11-21T06:17:48;20.33;;;9.23;;
16660;SDS011;8444;52.012;5.048;2023-11-21T06:20:19;15.20;;;8.20;;
16660;SDS011;8444;52.012;5.048;2023-11-21T06:22:45;22.40;;;9.17;;
16660;SDS011;8444;52.012;5.048;2023-11-21T06:25:11;22.73;;;9.83;;
16660;SDS011;8444;52.012;5.048;2023-11-21T06:27:38;17.33;;;8.93;;
16660;SDS011;8444;52.012;5.048;2023-11-21T06:30:04;20.63;;;8.20;;
16660;SDS011;8444;52.012;5.048;2023-11-21T06:32:30;22.30;;;9.63;;
16660;SDS011;8444;52.012;5.048;2023-11-21T06:34:55;19.50;;;9.50;;
16660;SDS011;8444;52.012;5.048;2023-11-21T06:37:20;20.37;;;8.80;;
16660;SDS011;8444;52.012;5.048;2023-11-21T06:39:48;14.07;;;8.33;;
16660;SDS011;8444;52.012;5.048;2023-11-21T06:42:13;22.63;;;9.27;;
16660;SDS011;8444;52.012;5.048;2023-11-21T06:44:40;15.30;;;8.73;;
16660;SDS011;8444;52.012;5.048;2023-11-21T06:47:06;23.80;;;9.33;;
16660;SDS011;8444;52.012;5.048;2023-11-21T06:49:31;21.70;;;9.00;;
16660;SDS011;8444;52.012;5.048;2023-11-21T06:51:56;16.40;;;8.93;;
16660;SDS011;8444;52.012;5.048;2023-11-21T06:54:22;19.77;;;9.30;;
16660;SDS011;8444;52.012;5.048;2023-11-21T06:56:47;17.37;;;9.03;;
16660;SDS011;8444;52.012;5.048;2023-11-21T06:59:13;15.23;;;9.03;;
16660;SDS011;8444;52.012;5.048;2023-11-21T07:01:38;17.27;;;8.70;;
16660;SDS011;8444;52.012;5.048;2023-11-21T07:04:06;18.47;;;8.57;;
16660;SDS011;8444;52.012;5.048;2023-11-21T07:06:32;15.70;;;8.27;;
16660;SDS011;8444;52.012;5.048;2023-11-21T07:08:57;12.97;;;7.97;;
16660;SDS011;8444;52.012;5.048;2023-11-21T07:11:23;14.27;;;7.90;;
16660;SDS011;8444;52.012;5.048;2023-11-21T07:13:48;17.27;;;8.37;;
16660;SDS011;8444;52.012;5.048;2023-11-21T07:16:14;15.37;;;8.33;;
16660;SDS011;8444;52.012;5.048;2023-11-21T07:18:40;10.60;;;7.53;;
16660;SDS011;8444;52.012;5.048;2023-11-21T07:21:05;13.43;;;7.50;;
16660;SDS011;8444;52.012;5.048;2023-11-21T07:23:31;16.07;;;8.27;;
16660;SDS011;8444;52.012;5.048;2023-11-21T07:25:56;15.67;;;7.27;;
16660;SDS011;8444;52.012;5.048;2023-11-21T07:28:21;17.43;;;7.10;;
16660;SDS011;8444;52.012;5.048;2023-11-21T07:30:46;11.87;;;6.60;;
16660;SDS011;8444;52.012;5.048;2023-11-21T07:33:11;13.73;;;7.60;;
16660;SDS011;8444;52.012;5.048;2023-11-21T07:35:37;14.20;;;7.57;;
16660;SDS011;8444;52.012;5.048;2023-11-21T07:38:02;14.13;;;7.27;;
16660;SDS011;8444;52.012;5.048;2023-11-21T07:40:28;14.20;;;6.85;;
16660;SDS011;8444;52.012;5.048;2023-11-21T07:42:53;10.88;;;6.47;;
16660;SDS011;8444;52.012;5.048;2023-11-21T07:45:22;11.97;;;6.20;;
16660;SDS011;8444;52.012;5.048;2023-11-21T07:47:47;19.60;;;7.67;;
16660;SDS011;8444;52.012;5.048;2023-11-21T07:50:12;13.38;;;6.30;;
16660;SDS011;8444;52.012;5.048;2023-11-21T07:52:38;14.65;;;6.82;;
16660;SDS011;8444;52.012;5.048;2023-11-21T07:55:04;11.20;;;6.30;;
16660;SDS011;8444;52.012;5.048;2023-11-21T07:57:30;10.13;;;5.85;;
16660;SDS011;8444;52.012;5.048;2023-11-21T07:59:55;13.83;;;7.00;;
16660;SDS011;8444;52.012;5.048;2023-11-21T08:02:21;12.88;;;6.28;;
16660;SDS011;8444;52.012;5.048;2023-11-21T08:04:46;11.10;;;6.82;;
16660;SDS011;8444;52.012;5.048;2023-11-21T08:07:16;16.40;;;6.63;;
16660;SDS011;8444;52.012;5.048;2023-11-21T08:09:41;9.93;;;6.60;;
16660;SDS011;8444;52.012;5.048;2023-11-21T08:12:07;12.38;;;6.35;;
16660;SDS011;8444;52.012;5.048;2023-11-21T08:14:32;9.55;;;5.85;;
16660;SDS011;8444;52.012;5.048;2023-11-21T08:16:57;13.00;;;7.47;;
16660;SDS011;8444;52.012;5.048;2023-11-21T08:19:23;12.00;;;6.00;;
16660;SDS011;8444;52.012;5.048;2023-11-21T08:21:50;9.65;;;5.85;;
16660;SDS011;8444;52.012;5.048;2023-11-21T08:24:15;10.35;;;5.22;;
16660;SDS011;8444;52.012;5.048;2023-11-21T08:26:41;11.90;;;6.38;;
16660;SDS011;8444;52.012;5.048;2023-11-21T08:29:06;12.05;;;5.47;;
16660;SDS011;8444;52.012;5.048;2023-11-21T08:31:32;10.45;;;5.22;;
16660;SDS011;8444;52.012;5.048;2023-11-21T08:34:03;8.70;;;4.25;;
16660;SDS011;8444;52.012;5.048;2023-11-21T08:36:36;14.02;;;6.03;;
16660;SDS011;8444;52.012;5.048;2023-11-21T08:39:31;9.55;;;5.07;;
16660;SDS011;8444;52.012;5.048;2023-11-21T08:42:25;11.00;;;5.35;;
16660;SDS011;8444;52.012;5.048;2023-11-21T08:47:50;12.27;;;4.88;;
16660;SDS011;8444;52.012;5.048;2023-11-21T08:50:15;7.75;;;4.40;;
16660;SDS011;8444;52.012;5.048;2023-11-21T08:52:40;9.43;;;4.80;;
16660;SDS011;8444;52.012;5.048;2023-11-21T08:55:07;9.85;;;5.22;;
16660;SDS011;8444;52.012;5.048;2023-11-21T08:57:36;8.32;;;4.72;;
16660;SDS011;8444;52.012;5.048;2023-11-21T09:00:02;8.20;;;4.43;;
16660;SDS011;8444;52.012;5.048;2023-11-21T09:02:28;12.43;;;5.65;;
16660;SDS011;8444;52.012;5.048;2023-11-21T09:04:53;10.25;;;4.82;;
16660;SDS011;8444;52.012;5.048;2023-11-21T09:07:18;10.23;;;5.00;;
16660;SDS011;8444;52.012;5.048;2023-11-21T09:09:45;7.65;;;4.63;;
16660;SDS011;8444;52.012;5.048;2023-11-21T09:12:10;9.98;;;5.50;;
16660;SDS011;8444;52.012;5.048;2023-11-21T09:14:37;10.63;;;5.60;;
16660;SDS011;8444;52.012;5.048;2023-11-21T09:17:02;9.38;;;5.20;;
16660;SDS011;8444;52.012;5.048;2023-11-21T09:19:28;12.40;;;5.88;;
16660;SDS011;8444;52.012;5.048;2023-11-21T09:21:53;7.13;;;4.35;;
16660;SDS011;8444;52.012;5.048;2023-11-21T09:24:19;9.25;;;4.35;;
16660;SDS011;8444;52.012;5.048;2023-11-21T09:26:44;9.27;;;4.82;;
16660;SDS011;8444;52.012;5.048;2023-11-21T09:29:10;7.15;;;4.13;;
16660;SDS011;8444;52.012;5.048;2023-11-21T09:31:35;8.02;;;4.40;;
16660;SDS011;8444;52.012;5.048;2023-11-21T09:34:00;9.95;;;4.88;;
16660;SDS011;8444;52.012;5.048;2023-11-21T09:36:27;7.80;;;5.25;;
16660;SDS011;8444;52.012;5.048;2023-11-21T09:38:54;8.82;;;4.95;;
16660;SDS011;8444;52.012;5.048;2023-11-21T09:41:28;7.95;;;4.78;;
16660;SDS011;8444;52.012;5.048;2023-11-21T09:43:59;9.20;;;4.95;;
16660;SDS011;8444;52.012;5.048;2023-11-21T09:46:25;8.98;;;5.00;;
16660;SDS011;8444;52.012;5.048;2023-11-21T09:48:53;6.00;;;3.15;;
16660;SDS011;8444;52.012;5.048;2023-11-21T09:51:19;7.35;;;4.07;;
16660;SDS011;8444;52.012;5.048;2023-11-21T09:53:45;5.28;;;3.25;;
16660;SDS011;8444;52.012;5.048;2023-11-21T09:56:11;9.10;;;4.57;;
16660;SDS011;8444;52.012;5.048;2023-11-21T09:58:36;7.05;;;3.72;;
16660;SDS011;8444;52.012;5.048;2023-11-21T10:01:01;5.88;;;3.70;;
16660;SDS011;8444;52.012;5.048;2023-11-21T10:03:28;6.78;;;3.92;;
16660;SDS011;8444;52.012;5.048;2023-11-21T10:05:53;7.70;;;3.40;;
16660;SDS011;8444;52.012;5.048;2023-11-21T10:08:18;5.68;;;4.13;;
16660;SDS011;8444;52.012;5.048;2023-11-21T10:10:45;6.47;;;3.70;;
16660;SDS011;8444;52.012;5.048;2023-11-21T10:13:11;11.30;;;4.10;;
16660;SDS011;8444;52.012;5.048;2023-11-21T10:15:37;5.30;;;3.85;;
16660;SDS011;8444;52.012;5.048;2023-11-21T10:18:03;6.22;;;3.78;;
16660;SDS011;8444;52.012;5.048;2023-11-21T10:20:29;5.35;;;3.05;;
16660;SDS011;8444;52.012;5.048;2023-11-21T10:22:55;5.55;;;3.58;;
16660;SDS011;8444;52.012;5.048;2023-11-21T10:25:21;7.07;;;3.42;;
16660;SDS011;8444;52.012;5.048;2023-11-21T10:27:47;5.63;;;3.47;;
16660;SDS011;8444;52.012;5.048;2023-11-21T10:30:13;4.35;;;2.85;;
16660;SDS011;8444;52.012;5.048;2023-11-21T10:32:41;4.32;;;2.85;;
16660;SDS011;8444;52.012;5.048;2023-11-21T10:35:07;5.45;;;2.60;;
16660;SDS011;8444;52.012;5.048;2023-11-21T10:37:38;4.00;;;2.85;;
16660;SDS011;8444;52.012;5.048;2023-11-21T10:40:05;5.15;;;3.33;;
16660;SDS011;8444;52.012;5.048;2023-11-21T10:42:31;5.28;;;2.88;;
16660;SDS011;8444;52.012;5.048;2023-11-21T10:44:57;4.68;;;3.13;;
16660;SDS011;8444;52.012;5.048;2023-11-21T10:47:22;6.40;;;3.53;;
16660;SDS011;8444;52.012;5.048;2023-11-21T10:49:48;5.82;;;2.97;;
16660;SDS011;8444;52.012;5.048;2023-11-21T10:52:14;6.28;;;3.58;;
16660;SDS011;8444;52.012;5.048;2023-11-21T10:54:42;7.32;;;3.25;;
16660;SDS011;8444;52.012;5.048;2023-11-21T10:57:07;5.50;;;3.28;;
16660;SDS011;8444;52.012;5.048;2023-11-21T10:59:33;4.88;;;3.00;;
16660;SDS011;8444;52.012;5.048;2023-11-21T11:01:58;5.03;;;2.53;;
16660;SDS011;8444;52.012;5.048;2023-11-21T11:04:26;4.82;;;2.78;;
16660;SDS011;8444;52.012;5.048;2023-11-21T11:06:56;4.22;;;2.10;;
16660;SDS011;8444;52.012;5.048;2023-11-21T11:09:22;5.30;;;2.00;;
16660;SDS011;8444;52.012;5.048;2023-11-21T11:11:47;4.93;;;3.33;;
16660;SDS011;8444;52.012;5.048;2023-11-21T11:14:14;5.65;;;3.60;;
16660;SDS011;8444;52.012;5.048;2023-11-21T11:16:39;6.30;;;2.70;;
16660;SDS011;8444;52.012;5.048;2023-11-21T11:19:10;6.35;;;3.25;;
16660;SDS011;8444;52.012;5.048;2023-11-21T11:24:11;5.03;;;2.75;;
16660;SDS011;8444;52.012;5.048;2023-11-21T11:26:46;5.65;;;3.45;;
16660;SDS011;8444;52.012;5.048;2023-11-21T11:31:49;6.10;;;4.00;;
16660;SDS011;8444;52.012;5.048;2023-11-21T11:34:20;8.07;;;4.53;;
16660;SDS011;8444;52.012;5.048;2023-11-21T11:36:48;6.72;;;4.15;;
16660;SDS011;8444;52.012;5.048;2023-11-21T11:39:26;7.70;;;4.40;;
16660;SDS011;8444;52.012;5.048;2023-11-21T11:41:52;8.32;;;4.93;;
16660;SDS011;8444;52.012;5.048;2023-11-21T11:47:01;8.13;;;3.95;;
16660;SDS011;8444;52.012;5.048;2023-11-21T11:49:29;6.47;;;3.88;;
16660;SDS011;8444;52.012;5.048;2023-11-21T11:54:38;7.50;;;5.18;;
16660;SDS011;8444;52.012;5.048;2023-11-21T11:57:03;7.43;;;4.47;;
16660;SDS011;8444;52.012;5.048;2023-11-21T11:59:29;10.25;;;5.43;;
16660;SDS011;8444;52.012;5.048;2023-11-21T12:01:54;10.85;;;5.20;;
16660;SDS011;8444;52.012;5.048;2023-11-21T12:06:48;9.30;;;4.90;;
16660;SDS011;8444;52.012;5.048;2023-11-21T12:09:19;7.50;;;4.60;;
16660;SDS011;8444;52.012;5.048;2023-11-21T12:11:45;9.15;;;4.93;;
16660;SDS011;8444;52.012;5.048;2023-11-21T12:14:10;12.75;;;5.38;;
16660;SDS011;8444;52.012;5.048;2023-11-21T12:16:36;9.07;;;5.53;;
16660;SDS011;8444;52.012;5.048;2023-11-21T12:19:02;11.07;;;5.80;;
16660;SDS011;8444;52.012;5.048;2023-11-21T12:21:27;10.65;;;6.45;;
16660;SDS011;8444;52.012;5.048;2023-11-21T12:23:53;11.68;;;5.63;;
16660;SDS011;8444;52.012;5.048;2023-11-21T12:26:18;12.05;;;6.22;;
16660;SDS011;8444;52.012;5.048;2023-11-21T12:28:43;10.65;;;6.97;;
16660;SDS011;8444;52.012;5.048;2023-11-21T12:31:09;12.65;;;7.28;;
16660;SDS011;8444;52.012;5.048;2023-11-21T12:33:35;10.88;;;6.00;;
16660;SDS011;8444;52.012;5.048;2023-11-21T12:36:01;11.05;;;7.05;;
16660;SDS011;8444;52.012;5.048;2023-11-21T12:38:33;13.52;;;6.65;;
16660;SDS011;8444;52.012;5.048;2023-11-21T12:40:58;15.15;;;7.50;;
16660;SDS011;8444;52.012;5.048;2023-11-21T12:43:24;12.65;;;6.03;;
16660;SDS011;8444;52.012;5.048;2023-11-21T12:45:49;10.65;;;5.68;;
16660;SDS011;8444;52.012;5.048;2023-11-21T12:48:14;10.52;;;6.07;;
16660;SDS011;8444;52.012;5.048;2023-11-21T12:50:42;12.60;;;6.30;;
16660;SDS011;8444;52.012;5.048;2023-11-21T12:53:08;8.40;;;4.78;;
16660;SDS011;8444;52.012;5.048;2023-11-21T12:55:35;9.00;;;5.45;;
16660;SDS011;8444;52.012;5.048;2023-11-21T12:58:05;9.65;;;5.85;;
16660;SDS011;8444;52.012;5.048;2023-11-21T13:00:38;10.55;;;5.35;;
16660;SDS011;8444;52.012;5.048;2023-11-21T13:03:07;12.15;;;6.68;;
16660;SDS011;8444;52.012;5.048;2023-11-21T13:05:36;14.13;;;7.68;;
16660;SDS011;8444;52.012;5.048;2023-11-21T13:08:05;10.90;;;6.22;;
16660;SDS011;8444;52.012;5.048;2023-11-21T13:10:33;12.80;;;6.60;;
16660;SDS011;8444;52.012;5.048;2023-11-21T13:13:01;12.98;;;7.38;;
16660;SDS011;8444;52.012;5.048;2023-11-21T13:15:30;14.50;;;7.30;;
16660;SDS011;8444;52.012;5.048;2023-11-21T13:17:56;14.50;;;7.35;;
16660;SDS011;8444;52.012;5.048;2023-11-21T13:20:22;10.43;;;5.80;;
16660;SDS011;8444;52.012;5.048;2023-11-21T13:22:49;9.25;;;5.10;;
16660;SDS011;8444;52.012;5.048;2023-11-21T13:25:16;10.32;;;5.90;;
16660;SDS011;8444;52.012;5.048;2023-11-21T13:27:43;12.10;;;6.22;;
16660;SDS011;8444;52.012;5.048;2023-11-21T13:30:09;10.85;;;6.15;;
16660;SDS011;8444;52.012;5.048;2023-11-21T13:32:35;9.65;;;5.60;;
16660;SDS011;8444;52.012;5.048;2023-11-21T13:35:00;8.15;;;5.43;;
16660;SDS011;8444;52.012;5.048;2023-11-21T13:37:25;9.02;;;5.03;;
16660;SDS011;8444;52.012;5.048;2023-11-21T13:39:53;9.45;;;4.78;;
16660;SDS011;8444;52.012;5.048;2023-11-21T13:42:19;9.68;;;5.00;;
16660;SDS011;8444;52.012;5.048;2023-11-21T13:44:47;7.80;;;4.25;;
16660;SDS011;8444;52.012;5.048;2023-11-21T13:47:14;9.43;;;4.85;;
16660;SDS011;8444;52.012;5.048;2023-11-21T13:49:39;7.70;;;4.85;;
16660;SDS011;8444;52.012;5.048;2023-11-21T13:52:06;9.05;;;4.57;;
16660;SDS011;8444;52.012;5.048;2023-11-21T13:54:32;9.55;;;5.07;;
16660;SDS011;8444;52.012;5.048;2023-11-21T13:56:57;6.93;;;4.38;;
16660;SDS011;8444;52.012;5.048;2023-11-21T13:59:24;7.00;;;4.10;;
16660;SDS011;8444;52.012;5.048;2023-11-21T14:01:53;9.35;;;4.50;;
16660;SDS011;8444;52.012;5.048;2023-11-21T14:04:18;9.90;;;5.07;;
16660;SDS011;8444;52.012;5.048;2023-11-21T14:06:43;10.52;;;5.60;;
16660;SDS011;8444;52.012;5.048;2023-11-21T14:09:20;13.00;;;5.30;;
16660;SDS011;8444;52.012;5.048;2023-11-21T14:11:58;11.88;;;6.75;;
16660;SDS011;8444;52.012;5.048;2023-11-21T14:14:24;12.77;;;6.70;;
16660;SDS011;8444;52.012;5.048;2023-11-21T14:16:50;11.77;;;6.35;;
16660;SDS011;8444;52.012;5.048;2023-11-21T14:19:15;11.73;;;6.57;;
16660;SDS011;8444;52.012;5.048;2023-11-21T14:21:42;11.10;;;5.53;;
16660;SDS011;8444;52.012;5.048;2023-11-21T14:24:13;10.02;;;5.55;;
16660;SDS011;8444;52.012;5.048;2023-11-21T14:26:42;10.73;;;5.90;;
16660;SDS011;8444;52.012;5.048;2023-11-21T14:29:10;8.70;;;5.25;;
16660;SDS011;8444;52.012;5.048;2023-11-21T14:31:39;8.82;;;5.45;;
16660;SDS011;8444;52.012;5.048;2023-11-21T14:34:04;9.23;;;5.05;;
16660;SDS011;8444;52.012;5.048;2023-11-21T14:36:32;8.63;;;4.70;;
16660;SDS011;8444;52.012;5.048;2023-11-21T14:38:57;8.90;;;4.65;;
16660;SDS011;8444;52.012;5.048;2023-11-21T14:41:22;9.43;;;5.03;;
16660;SDS011;8444;52.012;5.048;2023-11-21T14:43:47;10.05;;;4.78;;
16660;SDS011;8444;52.012;5.048;2023-11-21T14:46:14;8.77;;;5.30;;
16660;SDS011;8444;52.012;5.048;2023-11-21T14:48:42;9.43;;;5.38;;
16660;SDS011;8444;52.012;5.048;2023-11-21T14:51:10;12.13;;;5.82;;
16660;SDS011;8444;52.012;5.048;2023-11-21T14:53:51;14.55;;;7.05;;
16660;SDS011;8444;52.012;5.048;2023-11-21T14:56:19;13.38;;;6.45;;
16660;SDS011;8444;52.012;5.048;2023-11-21T14:58:51;13.27;;;8.07;;
16660;SDS011;8444;52.012;5.048;2023-11-21T15:01:16;15.70;;;8.07;;
16660;SDS011;8444;52.012;5.048;2023-11-21T15:03:51;15.00;;;7.50;;